Fort Worth Nas Jrb/Carswell field
KNFW : now visible

Airfield :











YOU CAN JOIN US ON...

 
LOGIN :

Register | Disclaimer

   EN    FR    IT 

 









Legend :    VFR   Marginal VFR   IFR   Intensive IFR   Very Intensive IFR
Visi :
Ceiling :
>= 8 km
>= 3000ft
5 to 8 km
1000 to 3000 ft
1500m to 5 km
500 to 1000 ft
800 to 1500m
200 to 500 ft
< 800m
< 200 ft
Symbols :   Thunderstorms  Fog  Heavy snow  Heavy precipitations  Wind > 20 kt






- Airport Elevation : 650 ft


KNFW - Fort Worth Nas Jrb/Carswell field

CURRENT METAR :
  • 120152Z VRB05KT 10SM FEW200 FEW250 08/00 A3041 RMK AO2 SLP278 T00780000 VISNO N $

EXPIRED METARs :
  • 120052Z 15007KT 10SM FEW200 FEW250 10/M01 A3041 RMK AO2 SLP278 T00941011 VISNO N $
  • 112352Z 15008KT 10SM FEW200 FEW250 11/M01 A3040 RMK AO2 SLP276 T01111011 10228 20094 56012 VISNO N $

TAF TAF KNFW
Valid from the 11 at 23:00 until the 12 at 23:00 UTC


1123/1223 17010KT 9999 FEW025 FEW250 FEW300 QNH3029INS
TEMPO 1203/1208 BKN025
BECMG 1208/1210 17011KT 9000 BR BKN005 BKN010 QNH3023INS
TEMPO 1210/1216 3200 BR OVC002
BECMG 1216/1218 19011KT 9999 NSW FEW015 SCT250 QNH3009INS AUTOMATED SENSOR METWATCH 1205 TIL 1212 T03/1215Z T09/1221Z FN20070



MET'MAP, your aeronautical weather chart ! - Copyright ORBIFLY December 2007 - Disclaimer

ORBIFLY MET'MAP TEAM :

Programming & Development : Alexandra Zaïnal
Concept & original design : Baudouin d'Aumeries
Assistance for programming : Marc-Olivier Méhu
Technical & hardware support : Manuel Goepfert

Contact : metmap@orbifly.com




SOURCES & CREDITS :

   NOAA       Earth
Advisory